Time;durP1;ratioP1;P1;durP2;ratioP2;P2;SDS_P1;SDS_P2;PMS_P1;PMS_P2;Temp;Humidity;BMP_temperature;BMP_pressure;BME280_temperature;BME280_humidity;BME280_pressure;Samples;Min_cycle;Max_cycle;Signal;HPM_P1;HPM_P2
2022/01/12 00:02:05;;;;;;;112.13;40.10;;;3.60;99.90;;;;;;5025628;28;20045;-82
2022/01/12 00:04:31;;;;;;;116.35;39.15;;;3.60;99.90;;;;;;4997976;28;132500;-81
2022/01/12 00:06:57;;;;;;;120.25;39.25;;;3.60;99.90;;;;;;5022660;28;20490;-81
2022/01/12 00:09:23;;;;;;;142.40;41.50;;;3.60;99.90;;;;;;5008998;28;232659;-82
2022/01/12 00:11:49;;;;;;;135.50;40.35;;;3.60;99.90;;;;;;5008374;28;20042;-82
2022/01/12 00:14:16;;;;;;;138.52;39.47;;;3.60;99.90;;;;;;4998598;28;35203;-81
2022/01/12 00:16:47;;;;;;;158.98;42.22;;;3.60;99.90;;;;;;4999579;28;20064;-81
2022/01/12 00:19:13;;;;;;;131.60;41.00;;;3.60;99.90;;;;;;5019704;28;30039;-81
2022/01/12 00:21:40;;;;;;;139.05;39.05;;;3.60;99.90;;;;;;5022752;28;20403;-81
2022/01/12 00:24:07;;;;;;;154.48;40.05;;;3.70;99.90;;;;;;5010919;28;121870;-81
2022/01/12 00:34:31;;;;;;;183.02;40.13;;;3.70;99.90;;;;;;5026673;28;258960;-69
2022/01/12 00:36:57;;;;;;;174.68;39.90;;;3.70;99.90;;;;;;5024879;28;20052;-69
2022/01/12 00:39:24;;;;;;;194.10;40.70;;;3.60;99.90;;;;;;5038314;22;114661;-71
2022/01/12 00:41:50;;;;;;;190.45;41.28;;;3.70;99.90;;;;;;5023942;28;20076;-70
2022/01/12 00:44:24;;;;;;;220.27;43.78;;;3.70;99.90;;;;;;5012592;28;219827;-70
2022/01/12 00:46:52;;;;;;;195.60;42.35;;;3.70;99.90;;;;;;5023082;28;20243;-71
2022/01/12 00:49:19;;;;;;;200.40;39.85;;;3.70;99.90;;;;;;5009381;28;132681;-71
2022/01/12 00:51:47;;;;;;;188.23;39.30;;;3.70;99.90;;;;;;5026910;28;20041;-70
2022/01/12 00:54:13;;;;;;;232.00;43.30;;;3.70;99.90;;;;;;5038887;28;62983;-70
2022/01/12 00:56:40;;;;;;;212.88;40.78;;;3.70;99.90;;;;;;5020308;28;20081;-70
2022/01/12 00:59:06;;;;;;;234.40;43.45;;;3.70;99.90;;;;;;5007734;28;202793;-71
2022/01/12 01:01:33;;;;;;;232.30;43.45;;;3.70;99.90;;;;;;5023782;28;20552;-71
2022/01/12 01:04:01;;;;;;;316.02;46.55;;;3.70;99.90;;;;;;4984087;28;255393;-70
2022/01/12 01:06:27;;;;;;;272.38;44.55;;;3.70;99.90;;;;;;5024171;28;20056;-70
2022/01/12 01:08:54;;;;;;;277.80;42.85;;;3.70;99.90;;;;;;5000445;28;258529;-70
2022/01/12 01:11:20;;;;;;;338.00;47.20;;;3.70;99.90;;;;;;5028508;28;20054;-70
2022/01/12 01:13:59;;;;;;;272.10;44.17;;;3.70;99.90;;;;;;4988072;28;255366;-70
2022/01/12 01:27:08;;;;;;;330.08;46.65;;;3.70;99.90;;;;;;5018848;28;20076;-71
2022/01/12 01:29:35;;;;;;;271.75;46.35;;;3.70;99.90;;;;;;5009695;28;141890;-71
2022/01/12 01:32:01;;;;;;;330.73;48.50;;;3.70;99.90;;;;;;5031467;28;20064;-71
2022/01/12 01:34:28;;;;;;;282.52;44.88;;;3.70;99.90;;;;;;5010858;28;171773;-70
2022/01/12 01:36:55;;;;;;;346.20;47.65;;;3.70;99.90;;;;;;5023702;28;20046;-70
2022/01/12 01:39:24;;;;;;;324.92;46.17;;;3.70;99.90;;;;;;5003003;28;245835;-70
2022/01/12 01:41:54;;;;;;;306.55;44.97;;;3.70;99.90;;;;;;5019511;28;20450;-70
2022/01/12 01:55:04;;;;;;;322.33;45.22;;;3.70;99.90;;;;;;5021159;28;261358;-71
2022/01/12 01:57:31;;;;;;;379.52;46.35;;;3.70;99.90;;;;;;5020015;28;20054;-71
2022/01/12 01:59:58;;;;;;;515.30;53.42;;;3.80;99.90;;;;;;5019084;28;269800;-70
2022/01/12 02:02:24;;;;;;;545.42;52.38;;;3.80;99.90;;;;;;5026162;28;20062;-71
2022/01/12 02:04:50;;;;;;;409.20;46.88;;;3.80;99.90;;;;;;4994315;28;219243;-70
2022/01/12 02:07:16;;;;;;;455.30;49.20;;;3.70;99.90;;;;;;5023607;28;20060;-71
2022/01/12 02:09:42;;;;;;;376.40;45.85;;;3.80;99.90;;;;;;5019221;28;251622;-71
2022/01/12 02:12:10;;;;;;;419.38;49.38;;;3.80;99.90;;;;;;5029086;28;20499;-70
2022/01/12 02:14:36;;;;;;;465.70;52.15;;;3.80;99.90;;;;;;5018665;28;258204;-70
2022/01/12 02:17:08;;;;;;;406.88;50.45;;;3.80;99.90;;;;;;5031985;28;20042;-71
2022/01/12 02:36:21;;;;;;;335.67;46.72;;;3.80;99.90;;;;;;4942751;28;20046;-71
2022/01/12 02:41:32;;;;;;;456.90;46.58;;;3.80;99.90;;;;;;4943705;28;20050;-71
2022/01/12 02:54:50;;;;;;;341.48;45.47;;;3.90;99.90;;;;;;4964082;28;135155;-71
2022/01/12 02:57:17;;;;;;;281.48;44.13;;;3.90;99.90;;;;;;4967199;28;20081;-71
2022/01/12 03:02:33;;;;;;;419.48;46.03;;;3.90;99.90;;;;;;4940697;28;20054;-71
2022/01/12 03:07:44;;;;;;;468.45;46.97;;;3.90;99.90;;;;;;5017778;28;20761;-72
2022/01/12 03:10:12;;;;;;;372.33;45.95;;;3.90;99.90;;;;;;5014536;28;186522;-71
2022/01/12 03:12:43;;;;;;;420.42;45.50;;;3.90;99.90;;;;;;5020075;28;20072;-71
2022/01/12 03:15:09;;;;;;;518.55;47.67;;;3.90;99.90;;;;;;5017678;28;189396;-71
2022/01/12 03:17:36;;;;;;;521.03;47.90;;;3.90;99.90;;;;;;5017416;28;20050;-71
2022/01/12 03:20:07;;;;;;;647.00;51.92;;;3.90;99.90;;;;;;5022499;28;262485;-72
2022/01/12 03:22:33;;;;;;;610.50;50.38;;;3.90;99.90;;;;;;5020499;28;20053;-72
2022/01/12 03:24:59;;;;;;;551.38;48.97;;;3.90;99.90;;;;;;5014337;28;228321;-71
2022/01/12 03:27:27;;;;;;;590.42;46.97;;;3.90;99.90;;;;;;5028462;28;20066;-72
2022/01/12 03:29:56;;;;;;;397.63;43.15;;;3.90;99.90;;;;;;5022386;28;260809;-71
2022/01/12 03:32:32;;;;;;;599.30;50.15;;;3.90;99.90;;;;;;5028435;28;20093;-71
2022/01/12 03:35:08;;;;;;;589.85;49.28;;;3.90;99.90;;;;;;5013043;28;257111;-71
2022/01/12 03:37:53;;;;;;;546.80;44.92;;;3.90;99.90;;;;;;5048381;28;20065;-71
2022/01/12 03:40:19;;;;;;;571.88;50.90;;;3.90;99.90;;;;;;5024238;28;268105;-71
2022/01/12 03:42:45;;;;;;;533.58;46.38;;;3.90;99.90;;;;;;5019966;28;20065;-71
2022/01/12 03:45:11;;;;;;;571.83;48.92;;;3.90;99.90;;;;;;5021519;28;256566;-71
2022/01/12 03:47:38;;;;;;;596.17;50.50;;;3.80;99.90;;;;;;5025041;28;20053;-71
2022/01/12 03:50:04;;;;;;;619.13;48.53;;;3.80;99.90;;;;;;5020952;28;20060;-71
2022/01/12 03:52:30;;;;;;;695.38;51.05;;;3.80;99.90;;;;;;5022019;28;20530;-71
2022/01/12 03:54:56;;;;;;;741.47;50.08;;;3.80;99.90;;;;;;5007518;28;254827;-72
2022/01/12 03:57:23;;;;;;;861.70;54.80;;;3.80;99.90;;;;;;5025386;28;20064;-71
2022/01/12 03:59:49;;;;;;;785.88;50.80;;;3.70;99.90;;;;;;5016959;28;268504;-71
2022/01/12 04:02:15;;;;;;;836.25;51.60;;;3.70;99.90;;;;;;5021479;28;20057;-71
2022/01/12 04:05:05;;;;;;;977.03;59.85;;;3.70;99.90;;;;;;4998304;28;264043;-71
2022/01/12 04:10:12;;;;;;;933.13;53.70;;;3.70;99.90;;;;;;5023320;28;269869;-71
2022/01/12 04:12:38;;;;;;;858.30;52.30;;;3.60;99.90;;;;;;5025364;28;20057;-71
2022/01/12 04:15:04;;;;;;;829.72;49.95;;;3.60;99.90;;;;;;5022031;28;20064;-71
2022/01/12 04:17:30;;;;;;;912.20;49.70;;;3.60;99.90;;;;;;5020733;28;20077;-71
2022/01/12 04:19:57;;;;;;;880.05;47.03;;;3.60;99.90;;;;;;5032537;28;166886;-71
2022/01/12 04:25:08;;;;;;;936.83;51.85;;;3.60;99.90;;;;;;5014534;28;264650;-71
2022/01/12 04:27:36;;;;;;;873.85;45.47;;;3.60;99.90;;;;;;5026114;28;20049;-71
2022/01/12 04:30:02;;;;;;;774.50;45.95;;;3.50;99.90;;;;;;5017686;28;70959;-72
2022/01/12 04:32:29;;;;;;;846.25;48.03;;;3.50;99.90;;;;;;5018395;28;20053;-71
2022/01/12 04:34:55;;;;;;;799.30;45.42;;;3.50;99.90;;;;;;5010011;28;263491;-71
2022/01/12 04:37:21;;;;;;;770.22;44.65;;;3.50;99.90;;;;;;5024911;28;20051;-71
2022/01/12 04:39:47;;;;;;;796.60;42.42;;;3.50;99.90;;;;;;5018854;28;256148;-71
2022/01/12 04:42:13;;;;;;;767.92;41.03;;;3.50;99.90;;;;;;5031183;28;20385;-71
2022/01/12 04:44:44;;;;;;;707.72;40.05;;;3.50;99.90;;;;;;5009120;28;205522;-71
2022/01/12 04:47:17;;;;;;;775.08;41.17;;;3.50;99.90;;;;;;5005566;28;20057;-72
2022/01/12 04:52:13;;;;;;;726.50;38.60;;;3.40;99.90;;;;;;5028420;28;20052;-71
2022/01/12 04:54:39;;;;;;;696.30;37.80;;;3.30;99.90;;;;;;5036747;28;165025;-71
2022/01/12 04:57:05;;;;;;;685.88;36.58;;;3.30;99.90;;;;;;5016081;28;20050;-71
2022/01/12 04:59:35;;;;;;;624.15;38.47;;;3.30;99.90;;;;;;5013750;28;276560;-71
2022/01/12 05:06:18;;;;;;;683.22;37.65;;;3.20;99.90;;;;;;5005773;28;20046;-71
2022/01/12 05:07:43;;;;;;;740.40;39.85;;;3.20;99.90;;;;;;5019422;28;20405;-71
2022/01/12 05:12:56;;;;;;;719.28;40.22;;;3.10;99.90;;;;;;5019099;28;20041;-72
2022/01/12 05:15:27;;;;;;;621.50;34.80;;;3.10;99.90;;;;;;5025394;28;271261;-71
2022/01/12 05:17:54;;;;;;;551.65;34.35;;;3.00;99.90;;;;;;5018748;28;20057;-70
2022/01/12 05:20:22;;;;;;;616.92;35.33;;;3.00;99.90;;;;;;5011341;28;238250;-71
2022/01/12 05:22:48;;;;;;;685.65;37.10;;;3.00;99.90;;;;;;5016036;28;20569;-70
2022/01/12 05:25:17;;;;;;;622.83;34.90;;;3.00;99.90;;;;;;5017318;28;82748;-71
2022/01/12 05:27:45;;;;;;;660.63;36.72;;;3.00;99.90;;;;;;5017902;28;20068;-70
2022/01/12 05:30:12;;;;;;;600.97;36.05;;;2.90;99.90;;;;;;5012726;28;191952;-70
2022/01/12 05:32:38;;;;;;;613.75;34.38;;;2.90;99.90;;;;;;5022935;28;20057;-71
2022/01/12 05:35:07;;;;;;;622.30;34.42;;;2.90;99.90;;;;;;5019523;28;267170;-70
2022/01/12 05:37:33;;;;;;;802.60;40.90;;;2.90;99.90;;;;;;5023130;28;20426;-71
2022/01/12 05:40:00;;;;;;;699.95;37.67;;;2.80;99.90;;;;;;5007323;28;258594;-70
2022/01/12 05:42:27;;;;;;;560.25;32.20;;;2.80;99.90;;;;;;5013795;28;20386;-70
2022/01/12 05:44:53;;;;;;;457.33;28.40;;;2.80;99.90;;;;;;5005138;28;67042;-70
2022/01/12 05:47:36;;;;;;;547.03;31.02;;;2.70;99.90;;;;;;5016708;28;20072;-71
2022/01/12 05:50:04;;;;;;;525.28;29.30;;;2.70;99.90;;;;;;5004443;28;185069;-71
2022/01/12 05:52:30;;;;;;;483.50;28.42;;;2.70;99.90;;;;;;5032259;28;20396;-71
2022/01/12 05:54:56;;;;;;;561.50;30.17;;;2.70;99.90;;;;;;5005033;28;193446;-71
2022/01/12 05:57:22;;;;;;;427.35;29.65;;;2.60;99.90;;;;;;5016487;28;20102;-70
2022/01/12 05:59:49;;;;;;;421.52;25.77;;;2.60;99.90;;;;;;5012594;28;116017;-71
2022/01/12 06:02:15;;;;;;;454.15;27.77;;;2.50;99.90;;;;;;5021479;28;20057;-71
2022/01/12 06:04:41;;;;;;;463.33;27.48;;;2.50;99.90;;;;;;4995200;28;256263;-70
2022/01/12 06:07:08;;;;;;;413.75;24.55;;;2.40;99.90;;;;;;5016983;28;20076;-71
2022/01/12 06:09:34;;;;;;;289.63;24.23;;;2.40;99.90;;;;;;5008013;28;259418;-71
2022/01/12 06:12:00;;;;;;;276.15;21.50;;;2.30;99.90;;;;;;5030786;28;20057;-70
2022/01/12 06:14:26;;;;;;;338.15;21.73;;;2.20;99.90;;;;;;5013105;28;196538;-70
2022/01/12 06:16:52;;;;;;;304.38;21.23;;;2.20;99.90;;;;;;5042426;28;20060;-71
2022/01/12 06:19:18;;;;;;;272.10;20.88;;;2.10;99.90;;;;;;5043092;28;159496;-70
2022/01/12 06:21:44;;;;;;;268.55;20.58;;;2.10;99.90;;;;;;5030436;28;20065;-70
2022/01/12 06:24:10;;;;;;;233.48;19.45;;;2.00;99.90;;;;;;4998198;28;225401;-71
2022/01/12 06:26:37;;;;;;;320.42;23.48;;;2.00;99.90;;;;;;5030642;28;20060;-71
2022/01/12 06:31:45;;;;;;;218.98;18.85;;;1.80;99.90;;;;;;5040109;28;20049;-70
2022/01/12 06:34:11;;;;;;;154.27;17.85;;;1.80;99.90;;;;;;5011044;28;86472;-70
2022/01/12 06:36:38;;;;;;;178.50;18.08;;;1.70;99.90;;;;;;5035775;28;20045;-71
2022/01/12 06:39:10;;;;;;;174.55;18.20;;;1.70;99.90;;;;;;5014312;28;20068;-72
2022/01/12 06:41:37;;;;;;;206.43;18.83;;;1.60;99.90;;;;;;5047281;22;20068;-79
2022/01/12 06:44:05;;;;;;;213.60;20.08;;;1.60;99.90;;;;;;5036499;28;68548;-80
2022/01/12 06:46:31;;;;;;;324.40;23.55;;;1.60;99.90;;;;;;5052712;28;20053;-80
2022/01/12 06:48:58;;;;;;;329.13;24.55;;;1.60;99.90;;;;;;5004318;28;254820;-80
2022/01/12 06:51:28;;;;;;;331.60;24.88;;;1.60;99.90;;;;;;5046230;28;20152;-80
2022/01/12 06:53:54;;;;;;;245.17;20.53;;;1.60;99.90;;;;;;4698680;28;10003613;-69
2022/01/12 06:56:21;;;;;;;332.63;23.63;;;1.60;99.90;;;;;;5079698;28;20504;-70
2022/01/12 06:58:48;;;;;;;335.77;22.83;;;1.60;99.90;;;;;;5060762;28;258153;-69
2022/01/12 07:01:14;;;;;;;339.63;21.83;;;1.60;99.90;;;;;;5075157;28;20047;-70
2022/01/12 07:03:40;;;;;;;303.17;22.05;;;1.60;99.90;;;;;;5035337;28;303593;-71
2022/01/12 07:06:06;;;;;;;298.30;21.85;;;1.70;99.90;;;;;;5082666;28;20048;-70
2022/01/12 07:08:34;;;;;;;209.95;20.00;;;1.70;99.90;;;;;;5080654;22;20074;-83
2022/01/12 07:11:01;;;;;;;238.20;20.83;;;1.70;99.90;;;;;;5024584;28;256578;-83
2022/01/12 07:13:27;;;;;;;220.93;20.25;;;1.70;99.90;;;;;;5077384;28;20063;-82
2022/01/12 07:15:53;;;;;;;230.95;20.15;;;1.70;99.90;;;;;;5043158;28;70204;-82
2022/01/12 07:18:21;;;;;;;284.38;22.13;;;1.70;99.90;;;;;;5057419;28;20064;-82
2022/01/12 07:20:49;;;;;;;245.30;21.85;;;1.70;99.90;;;;;;5040978;28;85132;-82
2022/01/12 07:23:15;;;;;;;282.50;22.77;;;1.70;99.90;;;;;;5057455;28;20059;-81
2022/01/12 07:25:41;;;;;;;219.77;21.05;;;1.60;99.90;;;;;;5040697;28;108683;-82
2022/01/12 07:28:07;;;;;;;275.88;23.20;;;1.60;99.90;;;;;;5055552;28;20048;-82
2022/01/12 07:30:33;;;;;;;240.02;21.90;;;1.70;99.90;;;;;;5019175;28;141235;-82
2022/01/12 07:32:59;;;;;;;239.05;23.80;;;1.70;99.90;;;;;;5069945;28;20044;-82
2022/01/12 07:35:25;;;;;;;262.60;22.75;;;1.70;99.90;;;;;;5050612;28;255865;-82
2022/01/12 07:37:52;;;;;;;238.77;22.42;;;1.70;99.90;;;;;;5055423;28;20148;-82
2022/01/12 07:40:18;;;;;;;201.35;22.58;;;1.70;99.90;;;;;;5042688;28;33558;-82
2022/01/12 07:42:45;;;;;;;239.70;23.13;;;1.80;99.90;;;;;;5052792;28;20075;-82
2022/01/12 07:45:12;;;;;;;299.27;29.85;;;1.80;99.90;;;;;;5025934;28;44216;-82
2022/01/12 07:47:38;;;;;;;244.25;23.48;;;1.90;99.90;;;;;;5038561;28;20067;-81
2022/01/12 07:50:06;;;;;;;333.13;24.52;;;1.90;99.90;;;;;;5041319;28;79714;-83
2022/01/12 07:52:32;;;;;;;269.70;23.52;;;1.90;99.90;;;;;;5068737;28;20049;-82
2022/01/12 07:54:59;;;;;;;339.98;27.23;;;1.90;99.90;;;;;;5035685;28;204071;-82
2022/01/12 07:57:25;;;;;;;217.13;24.30;;;2.00;99.90;;;;;;5054830;28;20057;-83
2022/01/12 07:59:51;;;;;;;234.48;25.15;;;1.90;99.90;;;;;;5037828;28;95090;-83
2022/01/12 08:02:18;;;;;;;254.60;27.30;;;2.00;99.90;;;;;;5037805;28;20477;-83
2022/01/12 08:04:44;;;;;;;267.25;27.38;;;2.00;99.90;;;;;;5026716;28;199285;-83
2022/01/12 08:07:11;;;;;;;315.63;28.75;;;2.10;99.90;;;;;;5058588;28;20056;-83
2022/01/12 08:09:38;;;;;;;414.00;33.50;;;2.10;99.90;;;;;;5030071;28;48979;-83
2022/01/12 08:12:05;;;;;;;415.73;32.78;;;2.20;99.90;;;;;;5042452;28;20070;-82
2022/01/12 08:14:31;;;;;;;449.40;35.92;;;2.30;99.90;;;;;;5035632;28;85484;-82
2022/01/12 08:16:58;;;;;;;444.42;33.80;;;2.30;99.90;;;;;;5053411;28;20056;-82
2022/01/12 08:19:25;;;;;;;426.42;33.88;;;2.40;99.90;;;;;;5034066;28;183572;-82
2022/01/12 08:21:51;;;;;;;432.13;33.47;;;2.50;99.90;;;;;;5075358;28;20052;-82
2022/01/12 08:24:18;;;;;;;462.05;29.75;;;2.60;99.90;;;;;;5046543;28;228649;-82
2022/01/12 08:26:45;;;;;;;468.13;32.60;;;2.60;99.90;;;;;;5073445;28;20048;-82
2022/01/12 08:29:15;;;;;;;431.08;32.65;;;2.70;99.90;;;;;;5037784;28;115492;-83
2022/01/12 08:31:42;;;;;;;556.40;37.70;;;2.70;99.90;;;;;;5049066;28;20056;-82
2022/01/12 08:34:10;;;;;;;470.92;32.92;;;2.70;99.90;;;;;;5019777;28;145962;-81
2022/01/12 08:36:38;;;;;;;544.97;36.60;;;2.80;99.90;;;;;;5054041;28;20068;-83
2022/01/12 08:39:07;;;;;;;344.38;29.13;;;2.80;99.90;;;;;;5023029;28;138045;-82
2022/01/12 08:41:36;;;;;;;384.98;31.85;;;2.80;99.90;;;;;;5054703;28;20569;-82
2022/01/12 08:44:04;;;;;;;316.42;27.05;;;2.90;99.90;;;;;;5029035;28;121260;-82
2022/01/12 08:46:30;;;;;;;343.73;30.38;;;2.90;99.90;;;;;;5054832;28;20044;-82
2022/01/12 08:48:56;;;;;;;288.88;27.55;;;2.90;99.90;;;;;;5032051;28;251352;-82
2022/01/12 08:51:23;;;;;;;332.85;28.88;;;3.00;99.90;;;;;;5041518;28;20059;-82
2022/01/12 08:53:49;;;;;;;304.90;28.60;;;3.00;99.90;;;;;;5044870;28;257221;-82
2022/01/12 08:56:16;;;;;;;368.52;29.83;;;3.00;99.90;;;;;;5060770;28;20045;-82
2022/01/12 08:58:42;;;;;;;378.03;29.63;;;3.00;99.90;;;;;;5040961;28;239835;-82
2022/01/12 09:01:10;;;;;;;374.25;29.75;;;3.10;99.90;;;;;;5065072;28;20048;-82
2022/01/12 09:03:37;;;;;;;380.23;28.40;;;3.10;99.90;;;;;;5063254;28;261568;-82
2022/01/12 09:06:05;;;;;;;334.60;27.50;;;3.20;99.90;;;;;;5051803;28;66323;-82
2022/01/12 09:08:32;;;;;;;304.13;24.98;;;3.20;99.90;;;;;;5061693;28;20056;-83
2022/01/12 09:10:58;;;;;;;315.90;26.38;;;3.20;99.90;;;;;;5043307;28;57748;-83
2022/01/12 09:13:24;;;;;;;309.38;24.02;;;3.30;99.90;;;;;;5040454;28;20136;-82
2022/01/12 09:15:50;;;;;;;267.67;24.08;;;3.30;99.90;;;;;;5039219;28;227595;-82
2022/01/12 09:18:18;;;;;;;292.40;24.80;;;3.30;99.90;;;;;;5052415;28;20057;-83
2022/01/12 09:20:45;;;;;;;234.95;22.45;;;3.40;99.90;;;;;;5001070;28;216680;-82
2022/01/12 09:23:11;;;;;;;182.02;21.33;;;3.40;99.90;;;;;;5044599;28;20070;-82
2022/01/12 09:25:39;;;;;;;242.13;23.45;;;3.40;99.90;;;;;;5030864;28;153886;-84
2022/01/12 09:28:06;;;;;;;180.05;21.48;;;3.50;99.90;;;;;;5057303;28;20057;-84
2022/01/12 09:30:32;;;;;;;181.07;20.50;;;3.50;99.90;;;;;;5041290;28;61781;-84
2022/01/12 09:32:59;;;;;;;197.15;20.77;;;3.50;99.90;;;;;;5054735;28;20048;-83
2022/01/12 09:35:26;;;;;;;149.82;19.77;;;3.60;99.90;;;;;;5037865;28;201484;-83
2022/01/12 09:37:53;;;;;;;171.65;20.48;;;3.60;99.90;;;;;;5059203;28;20058;-82
2022/01/12 09:40:19;;;;;;;163.45;22.75;;;3.70;99.90;;;;;;5037610;28;150670;-82
2022/01/12 09:42:48;;;;;;;136.35;20.13;;;3.70;99.90;;;;;;5043369;28;20064;-83
2022/01/12 09:45:17;;;;;;;179.18;20.73;;;3.80;99.90;;;;;;5036614;28;160539;-83
2022/01/12 09:47:47;;;;;;;236.43;22.05;;;3.80;99.90;;;;;;5053272;28;20068;-82
2022/01/12 09:50:16;;;;;;;178.43;20.67;;;3.90;99.90;;;;;;5027125;28;170330;-83
2022/01/12 09:52:42;;;;;;;158.07;20.00;;;3.90;99.90;;;;;;5047938;28;20063;-83
2022/01/12 09:55:09;;;;;;;224.20;22.35;;;4.00;99.90;;;;;;5056832;28;104714;-83
2022/01/12 09:57:35;;;;;;;209.70;21.05;;;4.10;99.90;;;;;;5065959;28;20044;-82
2022/01/12 10:00:06;;;;;;;195.75;21.00;;;4.20;99.90;;;;;;5041606;28;170937;-82
2022/01/12 10:02:33;;;;;;;;;;;4.20;99.90;;;;;;5044120;28;20136;-82
2022/01/12 10:05:09;;;;;;;178.15;19.95;;;4.30;99.90;;;;;;5025271;28;236862;-82
2022/01/12 10:07:36;;;;;;;197.00;20.80;;;4.30;99.90;;;;;;5040020;28;20053;-83
2022/01/12 10:10:11;;;;;;;160.43;17.63;;;4.40;99.90;;;;;;5035847;28;114914;-82
2022/01/12 10:12:37;;;;;;;193.50;21.92;;;4.40;99.90;;;;;;5049655;28;20053;-82
2022/01/12 10:15:10;;;;;;;210.75;19.52;;;4.50;99.90;;;;;;5028115;28;171851;-83
2022/01/12 10:17:44;;;;;;;160.25;16.27;;;4.50;99.90;;;;;;5064637;28;20052;-82
2022/01/12 10:20:19;;;;;;;123.57;14.10;;;4.60;99.90;;;;;;5051453;28;158989;-83
2022/01/12 10:23:02;;;;;;;148.23;14.43;;;4.60;99.90;;;;;;5068201;28;20063;-83
2022/01/12 10:25:29;;;;;;;109.38;12.98;;;4.70;99.90;;;;;;5046116;28;122349;-83
2022/01/12 10:27:57;;;;;;;120.35;12.20;;;4.80;99.90;;;;;;5071394;28;20049;-82
2022/01/12 10:30:27;;;;;;;110.88;12.68;;;4.80;99.90;;;;;;5053718;28;134888;-82
2022/01/12 10:33:03;;;;;;;134.70;12.02;;;4.80;99.90;;;;;;5047968;28;20059;-82
2022/01/12 10:35:30;;;;;;;110.72;10.90;;;4.90;99.90;;;;;;5051535;28;120311;-82
2022/01/12 10:38:17;;;;;;;133.52;10.68;;;4.80;99.90;;;;;;5054367;28;20075;-83
2022/01/12 10:40:59;;;;;;;135.90;10.52;;;4.80;99.90;;;;;;5048416;28;201002;-83
2022/01/12 10:43:50;;;;;;;120.40;9.05;;;4.80;99.90;;;;;;5069130;28;20052;-81
2022/01/12 10:46:18;;;;;;;67.47;9.05;;;4.80;99.90;;;;;;5054220;28;20063;-83
2022/01/12 10:48:46;;;;;;;132.85;10.35;;;4.90;99.90;;;;;;5031327;28;247945;-82
2022/01/12 10:51:21;;;;;;;130.30;11.65;;;4.90;99.90;;;;;;5050566;28;20056;-81
2022/01/12 10:53:51;;;;;;;118.65;10.90;;;5.00;99.90;;;;;;5042641;28;254447;-82
2022/01/12 10:56:20;;;;;;;131.18;11.32;;;5.00;99.90;;;;;;5059185;28;20048;-81
2022/01/12 10:58:48;;;;;;;127.32;11.80;;;5.10;99.90;;;;;;5029634;28;259936;-81
2022/01/12 11:01:17;;;;;;;114.32;11.82;;;5.10;99.90;;;;;;5049495;28;20052;-83
2022/01/12 11:03:44;;;;;;;137.25;12.00;;;5.00;99.90;;;;;;5012616;28;263128;-85
2022/01/12 11:06:10;;;;;;;163.10;11.25;;;5.10;99.90;;;;;;5051196;28;20052;-82
2022/01/12 11:08:38;;;;;;;142.77;11.27;;;5.10;99.90;;;;;;5039560;28;260006;-83
2022/01/12 11:11:06;;;;;;;139.43;13.32;;;5.20;99.90;;;;;;5059474;28;20055;-83
2022/01/12 11:13:33;;;;;;;143.07;12.55;;;5.20;99.90;;;;;;5062780;28;20051;-84
2022/01/12 11:16:00;;;;;;;139.13;12.70;;;5.20;99.90;;;;;;5044382;28;71106;-84
2022/01/12 11:18:29;;;;;;;209.27;13.40;;;5.20;99.90;;;;;;5053326;28;20044;-85
2022/01/12 11:21:12;;;;;;;252.68;15.02;;;5.30;99.90;;;;;;5043051;28;22963;-85
2022/01/12 11:23:40;;;;;;;168.15;13.55;;;5.20;99.90;;;;;;5035710;28;261106;-86
2022/01/12 11:26:24;;;;;;;135.32;11.32;;;5.20;99.90;;;;;;5037180;28;20387;-85
2022/01/12 11:28:51;;;;;;;183.35;10.80;;;5.20;99.90;;;;;;5018729;28;254420;-85
2022/01/12 11:31:31;;;;;;;193.02;11.10;;;5.30;99.90;;;;;;5057262;28;20059;-85
2022/01/12 11:33:57;;;;;;;179.93;9.07;;;5.40;99.90;;;;;;5033752;28;260962;-85
2022/01/12 11:36:38;;;;;;;212.93;10.02;;;5.40;99.90;;;;;;5055053;28;20060;-83
2022/01/12 11:39:14;;;;;;;157.80;9.43;;;5.40;99.90;;;;;;5072810;28;157742;-84
2022/01/12 11:41:43;;;;;;;111.22;9.23;;;5.40;99.90;;;;;;5057069;28;20066;-84
2022/01/12 11:44:18;;;;;;;103.78;8.93;;;5.40;99.90;;;;;;5056364;28;20036;-84
2022/01/12 11:46:51;;;;;;;100.53;7.90;;;5.40;99.90;;;;;;5066873;28;20455;-84
2022/01/12 11:49:35;;;;;;;122.13;8.57;;;5.50;99.90;;;;;;5043002;28;216172;-85
2022/01/12 11:52:23;;;;;;;69.38;8.65;;;5.50;99.90;;;;;;5052521;28;20060;-84
2022/01/12 11:54:53;;;;;;;51.58;8.32;;;5.50;99.90;;;;;;5044872;28;20055;-85
2022/01/12 11:57:34;;;;;;;67.30;8.75;;;5.50;99.90;;;;;;5039327;28;20115;-83
2022/01/12 12:00:10;;;;;;;56.55;8.55;;;5.50;99.90;;;;;;5026153;28;221045;-82
2022/01/12 12:02:39;;;;;;;56.45;9.60;;;5.60;99.90;;;;;;5043958;28;20059;-84
2022/01/12 12:05:14;;;;;;;58.08;9.57;;;5.60;99.90;;;;;;5013163;28;238343;-82
2022/01/12 12:07:54;;;;;;;46.08;9.10;;;5.60;99.90;;;;;;5055700;28;20512;-83
2022/01/12 12:10:22;;;;;;;46.03;10.07;;;5.70;99.90;;;;;;5045519;28;20055;-82
2022/01/12 12:12:53;;;;;;;48.30;10.18;;;5.80;99.90;;;;;;5074118;28;20045;-82
2022/01/12 12:15:23;;;;;;;46.78;10.52;;;5.80;99.90;;;;;;5027539;28;114899;-81
2022/01/12 12:17:50;;;;;;;38.28;9.90;;;5.80;99.90;;;;;;5055316;28;20063;-82
2022/01/12 12:20:18;;;;;;;45.55;10.70;;;5.80;99.90;;;;;;5043015;28;20075;-83
2022/01/12 12:22:47;;;;;;;41.17;9.77;;;5.80;99.90;;;;;;5055842;28;20049;-83
2022/01/12 12:25:19;;;;;;;34.97;10.13;;;5.90;99.90;;;;;;5053101;28;96419;-83
2022/01/12 12:27:50;;;;;;;39.53;11.13;;;5.80;99.90;;;;;;5056899;28;20060;-82
2022/01/12 12:30:17;;;;;;;;;;;5.80;99.90;;;;;;5017442;28;210258;-82
2022/01/12 12:32:47;;;;;;;36.85;10.65;;;5.80;99.90;;;;;;5058258;28;19916;-83
2022/01/12 12:35:27;;;;;;;46.35;10.40;;;5.80;99.90;;;;;;5035166;28;49794;-80
2022/01/12 12:37:57;;;;;;;43.22;10.25;;;5.80;99.90;;;;;;5067627;28;20066;-81
2022/01/12 12:40:48;;;;;;;36.90;9.88;;;5.80;99.90;;;;;;5040764;28;239011;-81
2022/01/12 12:43:23;;;;;;;40.85;10.60;;;5.80;99.90;;;;;;5064520;28;20045;-81
2022/01/12 12:45:52;;;;;;;35.80;10.15;;;5.80;99.90;;;;;;5041785;28;185000;-82
2022/01/12 12:48:24;;;;;;;36.22;9.75;;;5.80;99.90;;;;;;5061021;28;20508;-82
2022/01/12 12:51:03;;;;;;;33.45;9.85;;;5.80;99.90;;;;;;5044726;28;242288;-81
2022/01/12 12:53:33;;;;;;;35.08;9.75;;;5.80;99.90;;;;;;5058145;28;20048;-83
2022/01/12 12:55:59;;;;;;;41.13;9.02;;;5.70;99.90;;;;;;5055084;28;152145;-82
2022/01/12 12:58:27;;;;;;;31.02;8.65;;;5.70;99.90;;;;;;5054953;28;20055;-85
2022/01/12 13:01:06;;;;;;;35.63;9.52;;;5.70;99.90;;;;;;5041434;28;116743;-81
2022/01/12 13:03:33;;;;;;;35.38;9.93;;;5.70;99.90;;;;;;5040846;28;20147;-82
2022/01/12 13:05:59;;;;;;;39.38;10.68;;;5.70;99.90;;;;;;4999755;28;219806;-83
2022/01/12 13:08:25;;;;;;;38.38;9.93;;;5.60;99.90;;;;;;5040798;28;20056;-82
2022/01/12 13:10:51;;;;;;;38.55;9.88;;;5.60;99.90;;;;;;5033719;28;156097;-83
2022/01/12 13:13:19;;;;;;;33.80;10.80;;;5.60;99.90;;;;;;5039276;28;20052;-84
2022/01/12 13:15:46;;;;;;;42.80;11.43;;;5.60;99.90;;;;;;5041740;28;66344;-83
2022/01/12 13:18:17;;;;;;;36.30;11.45;;;5.60;99.90;;;;;;5061403;28;20401;-83
2022/01/12 13:23:32;;;;;;;41.50;12.07;;;5.70;99.90;;;;;;5063412;28;19924;-68
2022/01/12 13:26:06;;;;;;;48.00;11.45;;;5.70;99.90;;;;;;5047205;28;191052;-68
2022/01/12 13:28:37;;;;;;;35.78;10.65;;;5.70;99.90;;;;;;5080542;28;20045;-69
2022/01/12 13:31:05;;;;;;;42.15;11.18;;;5.60;99.90;;;;;;5054979;28;20048;-69
2022/01/12 13:33:36;;;;;;;34.15;11.07;;;5.60;99.90;;;;;;5063937;28;20055;-68
2022/01/12 13:36:23;;;;;;;39.15;11.73;;;5.70;99.90;;;;;;5039575;23;20056;-71
2022/01/12 13:39:04;;;;;;;46.85;12.45;;;5.70;99.90;;;;;;5017180;28;253805;-69
2022/01/12 13:41:42;;;;;;;33.60;12.25;;;5.60;99.90;;;;;;5024168;28;20483;-69
2022/01/12 13:44:20;;;;;;;38.85;11.68;;;5.60;99.90;;;;;;5027825;28;32181;-68
2022/01/12 13:47:06;;;;;;;32.97;12.60;;;5.60;99.90;;;;;;5018814;28;20045;-70
2022/01/12 13:49:32;;;;;;;41.85;12.40;;;5.60;99.90;;;;;;4987239;28;178300;-70
2022/01/12 13:52:07;;;;;;;55.33;12.73;;;5.60;99.90;;;;;;5023139;28;20061;-70
2022/01/12 13:54:39;;;;;;;52.25;12.63;;;5.60;99.90;;;;;;5004126;28;273335;-70
2022/01/12 13:57:07;;;;;;;36.00;11.77;;;5.50;99.90;;;;;;5019407;28;20056;-70
2022/01/12 13:59:44;;;;;;;49.63;12.35;;;5.50;99.90;;;;;;5000334;28;252411;-70